sensor_id;sensor_type;location;lat;lon;timestamp;temperature;humidity
46217;DHT22;47258;59.424;13.482;2022-07-29T00:01:03;13.20;99.90
46217;DHT22;47258;59.424;13.482;2022-07-29T00:03:30;13.20;99.90
46217;DHT22;47258;59.424;13.482;2022-07-29T00:05:57;13.20;99.90
46217;DHT22;47258;59.424;13.482;2022-07-29T00:08:24;13.10;99.90
46217;DHT22;47258;59.424;13.482;2022-07-29T00:10:51;13.10;99.90
46217;DHT22;47258;59.424;13.482;2022-07-29T00:13:18;13.10;99.90
46217;DHT22;47258;59.424;13.482;2022-07-29T00:15:46;13.00;99.90
46217;DHT22;47258;59.424;13.482;2022-07-29T00:18:13;12.90;99.90
46217;DHT22;47258;59.424;13.482;2022-07-29T00:20:40;12.90;99.90
46217;DHT22;47258;59.424;13.482;2022-07-29T00:23:07;12.80;99.90
46217;DHT22;47258;59.424;13.482;2022-07-29T00:25:34;12.80;99.90
46217;DHT22;47258;59.424;13.482;2022-07-29T00:28:01;12.70;99.90
46217;DHT22;47258;59.424;13.482;2022-07-29T00:30:28;12.70;99.90
46217;DHT22;47258;59.424;13.482;2022-07-29T00:32:57;12.60;99.90
46217;DHT22;47258;59.424;13.482;2022-07-29T00:35:24;12.50;99.90
46217;DHT22;47258;59.424;13.482;2022-07-29T00:38:08;12.40;99.90
46217;DHT22;47258;59.424;13.482;2022-07-29T00:40:35;12.30;99.90
46217;DHT22;47258;59.424;13.482;2022-07-29T00:43:02;12.20;99.90
46217;DHT22;47258;59.424;13.482;2022-07-29T00:45:29;12.20;99.90
46217;DHT22;47258;59.424;13.482;2022-07-29T00:47:57;12.10;99.90
46217;DHT22;47258;59.424;13.482;2022-07-29T00:50:25;12.10;99.90
46217;DHT22;47258;59.424;13.482;2022-07-29T00:52:53;12.00;99.90
46217;DHT22;47258;59.424;13.482;2022-07-29T00:55:20;12.00;99.90
46217;DHT22;47258;59.424;13.482;2022-07-29T00:57:47;12.00;99.90
46217;DHT22;47258;59.424;13.482;2022-07-29T01:00:17;11.90;99.90
46217;DHT22;47258;59.424;13.482;2022-07-29T01:02:45;11.90;99.90
46217;DHT22;47258;59.424;13.482;2022-07-29T01:05:18;11.90;99.90
46217;DHT22;47258;59.424;13.482;2022-07-29T01:07:46;11.90;99.90
46217;DHT22;47258;59.424;13.482;2022-07-29T01:10:15;11.90;99.90
46217;DHT22;47258;59.424;13.482;2022-07-29T01:12:43;11.90;99.90
46217;DHT22;47258;59.424;13.482;2022-07-29T01:15:11;11.90;99.90
46217;DHT22;47258;59.424;13.482;2022-07-29T01:17:43;11.90;99.90
46217;DHT22;47258;59.424;13.482;2022-07-29T01:20:17;11.80;99.90
46217;DHT22;47258;59.424;13.482;2022-07-29T01:23:11;11.80;99.90
46217;DHT22;47258;59.424;13.482;2022-07-29T01:25:58;11.80;99.90
46217;DHT22;47258;59.424;13.482;2022-07-29T01:28:47;11.80;99.90
46217;DHT22;47258;59.424;13.482;2022-07-29T01:31:20;11.70;99.90
46217;DHT22;47258;59.424;13.482;2022-07-29T01:34:03;11.70;99.90
46217;DHT22;47258;59.424;13.482;2022-07-29T01:36:35;11.60;99.90
46217;DHT22;47258;59.424;13.482;2022-07-29T01:39:08;11.50;99.90
46217;DHT22;47258;59.424;13.482;2022-07-29T01:41:49;11.50;99.90
46217;DHT22;47258;59.424;13.482;2022-07-29T01:44:22;11.40;99.90
46217;DHT22;47258;59.424;13.482;2022-07-29T01:46:57;11.40;99.90
46217;DHT22;47258;59.424;13.482;2022-07-29T01:49:27;11.40;99.90
46217;DHT22;47258;59.424;13.482;2022-07-29T01:51:59;11.40;99.90
46217;DHT22;47258;59.424;13.482;2022-07-29T01:54:32;11.40;99.90
46217;DHT22;47258;59.424;13.482;2022-07-29T01:57:01;11.40;99.90
46217;DHT22;47258;59.424;13.482;2022-07-29T01:59:33;11.30;99.90
46217;DHT22;47258;59.424;13.482;2022-07-29T02:02:02;11.40;99.90
46217;DHT22;47258;59.424;13.482;2022-07-29T02:04:29;11.30;99.90
46217;DHT22;47258;59.424;13.482;2022-07-29T02:07:02;11.30;99.90
46217;DHT22;47258;59.424;13.482;2022-07-29T02:09:32;11.30;99.90
46217;DHT22;47258;59.424;13.482;2022-07-29T02:12:00;11.20;99.90
46217;DHT22;47258;59.424;13.482;2022-07-29T02:14:33;11.30;99.90
46217;DHT22;47258;59.424;13.482;2022-07-29T02:17:00;11.30;99.90
46217;DHT22;47258;59.424;13.482;2022-07-29T02:19:29;11.20;99.90
46217;DHT22;47258;59.424;13.482;2022-07-29T02:21:58;11.30;99.90
46217;DHT22;47258;59.424;13.482;2022-07-29T02:24:26;11.20;99.90
46217;DHT22;47258;59.424;13.482;2022-07-29T02:26:55;11.20;99.90
46217;DHT22;47258;59.424;13.482;2022-07-29T02:29:25;11.20;99.90
46217;DHT22;47258;59.424;13.482;2022-07-29T02:31:55;11.10;99.90
46217;DHT22;47258;59.424;13.482;2022-07-29T02:34:23;11.10;99.90
46217;DHT22;47258;59.424;13.482;2022-07-29T02:36:52;11.10;99.90
46217;DHT22;47258;59.424;13.482;2022-07-29T02:39:21;11.00;99.90
46217;DHT22;47258;59.424;13.482;2022-07-29T02:41:52;11.00;99.90
46217;DHT22;47258;59.424;13.482;2022-07-29T02:44:21;10.90;99.90
46217;DHT22;47258;59.424;13.482;2022-07-29T02:46:53;10.90;99.90
46217;DHT22;47258;59.424;13.482;2022-07-29T02:49:34;10.90;99.90
46217;DHT22;47258;59.424;13.482;2022-07-29T02:52:03;11.00;99.90
46217;DHT22;47258;59.424;13.482;2022-07-29T02:54:38;10.90;99.90
46217;DHT22;47258;59.424;13.482;2022-07-29T02:57:11;11.00;99.90
46217;DHT22;47258;59.424;13.482;2022-07-29T02:59:42;11.00;99.90
46217;DHT22;47258;59.424;13.482;2022-07-29T03:02:10;11.10;99.90
46217;DHT22;47258;59.424;13.482;2022-07-29T03:04:41;11.10;99.90
46217;DHT22;47258;59.424;13.482;2022-07-29T03:07:11;11.10;99.90
46217;DHT22;47258;59.424;13.482;2022-07-29T03:09:41;11.00;99.90
46217;DHT22;47258;59.424;13.482;2022-07-29T03:12:08;11.00;99.90
46217;DHT22;47258;59.424;13.482;2022-07-29T03:14:37;11.00;99.90
46217;DHT22;47258;59.424;13.482;2022-07-29T03:17:04;11.00;99.90
46217;DHT22;47258;59.424;13.482;2022-07-29T03:19:32;11.00;99.90
46217;DHT22;47258;59.424;13.482;2022-07-29T03:22:02;11.00;99.90
46217;DHT22;47258;59.424;13.482;2022-07-29T03:24:31;11.00;99.90
46217;DHT22;47258;59.424;13.482;2022-07-29T03:26:59;11.00;99.90
46217;DHT22;47258;59.424;13.482;2022-07-29T03:29:26;11.00;99.90
46217;DHT22;47258;59.424;13.482;2022-07-29T03:31:53;11.10;99.90
46217;DHT22;47258;59.424;13.482;2022-07-29T03:34:20;11.10;99.90
46217;DHT22;47258;59.424;13.482;2022-07-29T03:36:48;11.10;99.90
46217;DHT22;47258;59.424;13.482;2022-07-29T03:39:19;11.10;99.90
46217;DHT22;47258;59.424;13.482;2022-07-29T03:41:49;11.10;99.90
46217;DHT22;47258;59.424;13.482;2022-07-29T03:44:19;11.10;99.90
46217;DHT22;47258;59.424;13.482;2022-07-29T03:46:49;11.10;99.90
46217;DHT22;47258;59.424;13.482;2022-07-29T03:49:17;11.10;99.90
46217;DHT22;47258;59.424;13.482;2022-07-29T03:51:45;11.00;99.90
46217;DHT22;47258;59.424;13.482;2022-07-29T03:54:12;11.00;99.90
46217;DHT22;47258;59.424;13.482;2022-07-29T03:56:43;11.00;99.90
46217;DHT22;47258;59.424;13.482;2022-07-29T03:59:13;11.00;99.90
46217;DHT22;47258;59.424;13.482;2022-07-29T04:01:42;11.10;99.90
46217;DHT22;47258;59.424;13.482;2022-07-29T04:04:10;11.10;99.90
46217;DHT22;47258;59.424;13.482;2022-07-29T04:06:39;11.10;99.90
46217;DHT22;47258;59.424;13.482;2022-07-29T04:09:06;11.10;99.90
46217;DHT22;47258;59.424;13.482;2022-07-29T04:11:33;11.10;99.90
46217;DHT22;47258;59.424;13.482;2022-07-29T04:14:02;11.20;99.90
46217;DHT22;47258;59.424;13.482;2022-07-29T04:16:29;11.20;99.90
46217;DHT22;47258;59.424;13.482;2022-07-29T04:18:56;11.20;99.90
46217;DHT22;47258;59.424;13.482;2022-07-29T04:21:23;11.30;99.90
46217;DHT22;47258;59.424;13.482;2022-07-29T04:23:50;11.30;99.90
46217;DHT22;47258;59.424;13.482;2022-07-29T04:26:17;11.40;99.90
46217;DHT22;47258;59.424;13.482;2022-07-29T04:28:45;11.40;99.90
46217;DHT22;47258;59.424;13.482;2022-07-29T04:31:13;11.50;99.90
46217;DHT22;47258;59.424;13.482;2022-07-29T04:33:40;11.50;99.90
46217;DHT22;47258;59.424;13.482;2022-07-29T04:36:07;11.60;99.90
46217;DHT22;47258;59.424;13.482;2022-07-29T04:38:36;11.60;99.90
46217;DHT22;47258;59.424;13.482;2022-07-29T04:41:03;11.70;99.90
46217;DHT22;47258;59.424;13.482;2022-07-29T04:43:32;11.70;99.90
46217;DHT22;47258;59.424;13.482;2022-07-29T04:45:59;11.80;99.90
46217;DHT22;47258;59.424;13.482;2022-07-29T04:48:28;11.90;99.90
46217;DHT22;47258;59.424;13.482;2022-07-29T04:50:55;12.00;99.90
46217;DHT22;47258;59.424;13.482;2022-07-29T04:53:22;12.00;99.90
46217;DHT22;47258;59.424;13.482;2022-07-29T04:55:49;12.10;99.90
46217;DHT22;47258;59.424;13.482;2022-07-29T04:58:16;12.10;99.90
46217;DHT22;47258;59.424;13.482;2022-07-29T05:00:43;12.20;99.90
46217;DHT22;47258;59.424;13.482;2022-07-29T05:03:10;12.30;99.90
46217;DHT22;47258;59.424;13.482;2022-07-29T05:05:38;12.40;99.90
46217;DHT22;47258;59.424;13.482;2022-07-29T05:08:06;12.50;99.90
46217;DHT22;47258;59.424;13.482;2022-07-29T05:10:33;12.50;99.90
46217;DHT22;47258;59.424;13.482;2022-07-29T05:13:03;12.70;99.90
46217;DHT22;47258;59.424;13.482;2022-07-29T05:15:30;12.80;99.90
46217;DHT22;47258;59.424;13.482;2022-07-29T05:17:57;12.90;99.90
46217;DHT22;47258;59.424;13.482;2022-07-29T05:20:24;13.00;99.90
46217;DHT22;47258;59.424;13.482;2022-07-29T05:22:55;13.10;99.90
46217;DHT22;47258;59.424;13.482;2022-07-29T05:25:23;13.20;99.90
46217;DHT22;47258;59.424;13.482;2022-07-29T05:27:50;13.40;99.90
46217;DHT22;47258;59.424;13.482;2022-07-29T05:30:17;13.70;99.90
46217;DHT22;47258;59.424;13.482;2022-07-29T05:32:45;13.90;99.90
46217;DHT22;47258;59.424;13.482;2022-07-29T05:35:13;14.20;99.90
46217;DHT22;47258;59.424;13.482;2022-07-29T05:37:40;14.30;99.90
46217;DHT22;47258;59.424;13.482;2022-07-29T05:40:09;14.30;99.90
46217;DHT22;47258;59.424;13.482;2022-07-29T05:42:36;14.40;99.90
46217;DHT22;47258;59.424;13.482;2022-07-29T05:45:04;14.50;99.90
46217;DHT22;47258;59.424;13.482;2022-07-29T05:47:31;14.60;99.90
46217;DHT22;47258;59.424;13.482;2022-07-29T05:49:58;14.60;99.90
46217;DHT22;47258;59.424;13.482;2022-07-29T05:52:25;14.70;99.90
46217;DHT22;47258;59.424;13.482;2022-07-29T05:54:52;14.80;99.90
46217;DHT22;47258;59.424;13.482;2022-07-29T05:57:22;14.90;99.90
46217;DHT22;47258;59.424;13.482;2022-07-29T05:59:49;15.00;99.90
46217;DHT22;47258;59.424;13.482;2022-07-29T06:02:16;15.00;99.90
46217;DHT22;47258;59.424;13.482;2022-07-29T06:04:44;15.10;99.90
46217;DHT22;47258;59.424;13.482;2022-07-29T06:07:11;15.10;99.90
46217;DHT22;47258;59.424;13.482;2022-07-29T06:09:37;15.20;99.90
46217;DHT22;47258;59.424;13.482;2022-07-29T06:12:05;15.40;99.90
46217;DHT22;47258;59.424;13.482;2022-07-29T06:14:33;15.60;99.90
46217;DHT22;47258;59.424;13.482;2022-07-29T06:17:01;15.90;99.90
46217;DHT22;47258;59.424;13.482;2022-07-29T06:19:28;16.50;99.90
46217;DHT22;47258;59.424;13.482;2022-07-29T06:21:55;17.60;99.90
46217;DHT22;47258;59.424;13.482;2022-07-29T06:24:22;19.10;99.90
46217;DHT22;47258;59.424;13.482;2022-07-29T06:26:49;20.20;99.90
46217;DHT22;47258;59.424;13.482;2022-07-29T06:29:16;20.30;99.90
46217;DHT22;47258;59.424;13.482;2022-07-29T06:31:44;20.00;99.90
46217;DHT22;47258;59.424;13.482;2022-07-29T06:34:11;19.80;99.90
46217;DHT22;47258;59.424;13.482;2022-07-29T06:36:38;20.50;99.90
46217;DHT22;47258;59.424;13.482;2022-07-29T06:39:06;22.00;99.90
46217;DHT22;47258;59.424;13.482;2022-07-29T06:41:33;23.80;99.90
46217;DHT22;47258;59.424;13.482;2022-07-29T06:44:01;25.80;99.90
46217;DHT22;47258;59.424;13.482;2022-07-29T06:46:28;27.50;99.90
46217;DHT22;47258;59.424;13.482;2022-07-29T06:48:56;29.00;99.90
46217;DHT22;47258;59.424;13.482;2022-07-29T06:51:23;30.10;99.90
46217;DHT22;47258;59.424;13.482;2022-07-29T06:53:51;31.20;99.80
46217;DHT22;47258;59.424;13.482;2022-07-29T06:56:18;32.10;96.40
46217;DHT22;47258;59.424;13.482;2022-07-29T06:58:45;32.90;92.40
46217;DHT22;47258;59.424;13.482;2022-07-29T07:01:12;33.50;89.90
46217;DHT22;47258;59.424;13.482;2022-07-29T07:03:39;34.10;85.60
46217;DHT22;47258;59.424;13.482;2022-07-29T07:06:08;34.40;82.40
46217;DHT22;47258;59.424;13.482;2022-07-29T07:08:37;35.10;78.60
46217;DHT22;47258;59.424;13.482;2022-07-29T07:11:04;35.90;76.00
46217;DHT22;47258;59.424;13.482;2022-07-29T07:13:31;36.30;72.40
46217;DHT22;47258;59.424;13.482;2022-07-29T07:16:00;36.90;70.00
46217;DHT22;47258;59.424;13.482;2022-07-29T07:18:27;37.40;66.60
46217;DHT22;47258;59.424;13.482;2022-07-29T07:20:55;37.80;64.30
46217;DHT22;47258;59.424;13.482;2022-07-29T07:23:23;38.30;62.00
46217;DHT22;47258;59.424;13.482;2022-07-29T07:25:51;38.60;60.70
46217;DHT22;47258;59.424;13.482;2022-07-29T07:28:18;39.00;58.20
46217;DHT22;47258;59.424;13.482;2022-07-29T07:30:45;39.10;57.00
46217;DHT22;47258;59.424;13.482;2022-07-29T07:33:12;39.20;56.60
46217;DHT22;47258;59.424;13.482;2022-07-29T07:35:39;39.40;55.40
46217;DHT22;47258;59.424;13.482;2022-07-29T07:38:06;39.80;53.80
46217;DHT22;47258;59.424;13.482;2022-07-29T07:40:35;40.00;54.00
46217;DHT22;47258;59.424;13.482;2022-07-29T07:43:02;40.20;53.10
46217;DHT22;47258;59.424;13.482;2022-07-29T07:45:29;40.40;52.20
46217;DHT22;47258;59.424;13.482;2022-07-29T07:47:58;40.60;51.90
46217;DHT22;47258;59.424;13.482;2022-07-29T07:50:25;40.90;50.70
46217;DHT22;47258;59.424;13.482;2022-07-29T07:52:53;41.20;50.00
46217;DHT22;47258;59.424;13.482;2022-07-29T07:55:20;41.20;49.40
46217;DHT22;47258;59.424;13.482;2022-07-29T07:57:49;41.50;49.10
46217;DHT22;47258;59.424;13.482;2022-07-29T08:00:17;41.60;48.10
46217;DHT22;47258;59.424;13.482;2022-07-29T08:02:44;41.80;48.70
46217;DHT22;47258;59.424;13.482;2022-07-29T08:05:12;41.30;48.20
46217;DHT22;47258;59.424;13.482;2022-07-29T08:07:42;41.30;48.80
46217;DHT22;47258;59.424;13.482;2022-07-29T08:10:09;41.40;49.20
46217;DHT22;47258;59.424;13.482;2022-07-29T08:12:36;42.00;48.00
46217;DHT22;47258;59.424;13.482;2022-07-29T08:15:06;42.50;47.50
46217;DHT22;47258;59.424;13.482;2022-07-29T08:17:34;42.50;46.70
46217;DHT22;47258;59.424;13.482;2022-07-29T08:20:01;42.60;46.60
46217;DHT22;47258;59.424;13.482;2022-07-29T08:22:28;42.20;47.00
46217;DHT22;47258;59.424;13.482;2022-07-29T08:24:54;42.50;46.10
46217;DHT22;47258;59.424;13.482;2022-07-29T08:27:22;42.50;45.40
46217;DHT22;47258;59.424;13.482;2022-07-29T08:29:51;42.30;45.80
46217;DHT22;47258;59.424;13.482;2022-07-29T08:32:20;41.80;46.10
46217;DHT22;47258;59.424;13.482;2022-07-29T08:34:47;41.10;47.30
46217;DHT22;47258;59.424;13.482;2022-07-29T08:37:14;40.20;47.40
46217;DHT22;47258;59.424;13.482;2022-07-29T08:39:41;39.20;48.30
46217;DHT22;47258;59.424;13.482;2022-07-29T08:42:08;38.00;48.40
46217;DHT22;47258;59.424;13.482;2022-07-29T08:44:36;36.60;51.00
46217;DHT22;47258;59.424;13.482;2022-07-29T08:47:03;35.30;53.90
46217;DHT22;47258;59.424;13.482;2022-07-29T08:49:33;34.20;55.60
46217;DHT22;47258;59.424;13.482;2022-07-29T08:52:02;33.40;57.50
46217;DHT22;47258;59.424;13.482;2022-07-29T08:54:29;32.80;58.20
46217;DHT22;47258;59.424;13.482;2022-07-29T08:56:57;32.00;59.20
46217;DHT22;47258;59.424;13.482;2022-07-29T08:59:26;31.40;61.50
46217;DHT22;47258;59.424;13.482;2022-07-29T09:01:54;31.10;63.20
46217;DHT22;47258;59.424;13.482;2022-07-29T09:04:25;30.70;64.90
46217;DHT22;47258;59.424;13.482;2022-07-29T09:06:57;30.50;64.50
46217;DHT22;47258;59.424;13.482;2022-07-29T09:09:25;30.30;63.30
46217;DHT22;47258;59.424;13.482;2022-07-29T09:11:52;29.90;65.30
46217;DHT22;47258;59.424;13.482;2022-07-29T09:14:19;29.90;64.60
46217;DHT22;47258;59.424;13.482;2022-07-29T09:16:52;29.70;65.10
46217;DHT22;47258;59.424;13.482;2022-07-29T09:19:24;29.50;67.90
46217;DHT22;47258;59.424;13.482;2022-07-29T09:21:54;29.30;66.50
46217;DHT22;47258;59.424;13.482;2022-07-29T09:24:37;29.20;66.80
46217;DHT22;47258;59.424;13.482;2022-07-29T09:27:20;29.10;68.70
46217;DHT22;47258;59.424;13.482;2022-07-29T09:29:48;28.90;70.30
46217;DHT22;47258;59.424;13.482;2022-07-29T09:32:21;28.70;71.20
46217;DHT22;47258;59.424;13.482;2022-07-29T09:34:48;28.50;70.10
46217;DHT22;47258;59.424;13.482;2022-07-29T09:37:27;28.40;71.40
46217;DHT22;47258;59.424;13.482;2022-07-29T09:39:54;28.20;70.70
46217;DHT22;47258;59.424;13.482;2022-07-29T09:42:29;28.00;71.90
46217;DHT22;47258;59.424;13.482;2022-07-29T09:44:57;27.90;74.30
46217;DHT22;47258;59.424;13.482;2022-07-29T09:47:40;27.80;74.40
46217;DHT22;47258;59.424;13.482;2022-07-29T09:50:08;27.80;74.90
46217;DHT22;47258;59.424;13.482;2022-07-29T09:52:45;27.80;75.60
46217;DHT22;47258;59.424;13.482;2022-07-29T09:55:13;27.90;75.30
46217;DHT22;47258;59.424;13.482;2022-07-29T09:57:40;27.90;74.00
46217;DHT22;47258;59.424;13.482;2022-07-29T10:00:09;27.90;72.70
46217;DHT22;47258;59.424;13.482;2022-07-29T10:02:38;27.80;72.10
46217;DHT22;47258;59.424;13.482;2022-07-29T10:05:09;27.60;74.50
46217;DHT22;47258;59.424;13.482;2022-07-29T10:07:48;27.50;73.30
46217;DHT22;47258;59.424;13.482;2022-07-29T10:10:20;27.50;73.50
46217;DHT22;47258;59.424;13.482;2022-07-29T10:12:55;27.40;74.50
46217;DHT22;47258;59.424;13.482;2022-07-29T10:15:24;27.40;75.10
46217;DHT22;47258;59.424;13.482;2022-07-29T10:17:53;27.40;74.70
46217;DHT22;47258;59.424;13.482;2022-07-29T10:20:21;27.40;73.80
46217;DHT22;47258;59.424;13.482;2022-07-29T10:22:51;27.40;74.70
46217;DHT22;47258;59.424;13.482;2022-07-29T10:25:19;27.40;72.60
46217;DHT22;47258;59.424;13.482;2022-07-29T10:27:48;27.20;73.40
46217;DHT22;47258;59.424;13.482;2022-07-29T10:30:17;27.00;73.00
46217;DHT22;47258;59.424;13.482;2022-07-29T10:32:54;26.80;73.80
46217;DHT22;47258;59.424;13.482;2022-07-29T10:35:37;26.60;73.90
46217;DHT22;47258;59.424;13.482;2022-07-29T10:41:04;26.70;73.70
46217;DHT22;47258;59.424;13.482;2022-07-29T10:43:52;26.70;74.30
46217;DHT22;47258;59.424;13.482;2022-07-29T10:46:20;26.80;74.60
46217;DHT22;47258;59.424;13.482;2022-07-29T10:49:06;26.90;76.00
46217;DHT22;47258;59.424;13.482;2022-07-29T10:52:03;26.90;75.60
46217;DHT22;47258;59.424;13.482;2022-07-29T10:54:45;26.90;74.70
46217;DHT22;47258;59.424;13.482;2022-07-29T10:57:22;26.90;72.60
46217;DHT22;47258;59.424;13.482;2022-07-29T11:02:44;26.80;77.40
46217;DHT22;47258;59.424;13.482;2022-07-29T11:05:14;26.80;72.00
46217;DHT22;47258;59.424;13.482;2022-07-29T11:08:17;26.60;68.70
46217;DHT22;47258;59.424;13.482;2022-07-29T11:10:47;26.60;70.30
46217;DHT22;47258;59.424;13.482;2022-07-29T11:13:44;26.50;74.50
46217;DHT22;47258;59.424;13.482;2022-07-29T11:16:12;26.60;72.10
46217;DHT22;47258;59.424;13.482;2022-07-29T11:21:42;26.60;70.40
46217;DHT22;47258;59.424;13.482;2022-07-29T11:24:12;26.60;72.90
46217;DHT22;47258;59.424;13.482;2022-07-29T11:26:41;26.80;75.90
46217;DHT22;47258;59.424;13.482;2022-07-29T11:29:18;26.90;71.80
46217;DHT22;47258;59.424;13.482;2022-07-29T11:31:48;27.00;70.60
46217;DHT22;47258;59.424;13.482;2022-07-29T11:34:25;27.00;71.80
46217;DHT22;47258;59.424;13.482;2022-07-29T11:37:21;27.00;71.40
46217;DHT22;47258;59.424;13.482;2022-07-29T11:42:55;27.00;70.90
46217;DHT22;47258;59.424;13.482;2022-07-29T11:45:26;27.10;69.30
46217;DHT22;47258;59.424;13.482;2022-07-29T11:48:18;27.20;70.50
46217;DHT22;47258;59.424;13.482;2022-07-29T11:50:45;27.10;68.40
46217;DHT22;47258;59.424;13.482;2022-07-29T11:53:13;27.00;68.10
46217;DHT22;47258;59.424;13.482;2022-07-29T11:55:41;26.90;67.80
46217;DHT22;47258;59.424;13.482;2022-07-29T11:58:09;26.90;69.20
46217;DHT22;47258;59.424;13.482;2022-07-29T12:00:38;26.90;70.20
46217;DHT22;47258;59.424;13.482;2022-07-29T12:03:08;27.00;70.90
46217;DHT22;47258;59.424;13.482;2022-07-29T12:05:38;27.00;70.70
46217;DHT22;47258;59.424;13.482;2022-07-29T12:08:11;27.00;70.30
46217;DHT22;47258;59.424;13.482;2022-07-29T12:10:39;27.00;69.70
46217;DHT22;47258;59.424;13.482;2022-07-29T12:13:06;27.00;71.10
46217;DHT22;47258;59.424;13.482;2022-07-29T12:15:35;27.00;68.00
46217;DHT22;47258;59.424;13.482;2022-07-29T12:18:12;26.90;70.70
46217;DHT22;47258;59.424;13.482;2022-07-29T12:20:40;26.90;69.30
46217;DHT22;47258;59.424;13.482;2022-07-29T12:23:07;26.70;68.60
46217;DHT22;47258;59.424;13.482;2022-07-29T12:25:38;26.60;67.20
46217;DHT22;47258;59.424;13.482;2022-07-29T12:28:06;26.50;68.60
46217;DHT22;47258;59.424;13.482;2022-07-29T12:30:37;26.50;67.80
46217;DHT22;47258;59.424;13.482;2022-07-29T12:33:17;26.50;65.60
46217;DHT22;47258;59.424;13.482;2022-07-29T12:35:47;26.30;70.10
46217;DHT22;47258;59.424;13.482;2022-07-29T12:38:14;26.20;68.80
46217;DHT22;47258;59.424;13.482;2022-07-29T12:40:42;26.20;70.70
46217;DHT22;47258;59.424;13.482;2022-07-29T12:43:12;26.20;70.40
46217;DHT22;47258;59.424;13.482;2022-07-29T12:45:43;26.10;69.50
46217;DHT22;47258;59.424;13.482;2022-07-29T12:48:10;25.90;71.40
46217;DHT22;47258;59.424;13.482;2022-07-29T12:50:53;25.80;70.20
46217;DHT22;47258;59.424;13.482;2022-07-29T12:53:20;25.60;71.20
46217;DHT22;47258;59.424;13.482;2022-07-29T12:55:48;25.40;71.60
46217;DHT22;47258;59.424;13.482;2022-07-29T12:58:27;25.30;71.60
46217;DHT22;47258;59.424;13.482;2022-07-29T13:01:04;25.20;72.40
46217;DHT22;47258;59.424;13.482;2022-07-29T13:03:50;25.10;73.60
46217;DHT22;47258;59.424;13.482;2022-07-29T13:06:31;25.00;71.20
46217;DHT22;47258;59.424;13.482;2022-07-29T13:09:00;24.90;70.20
46217;DHT22;47258;59.424;13.482;2022-07-29T13:11:31;24.70;72.10
46217;DHT22;47258;59.424;13.482;2022-07-29T13:13:58;24.80;73.90
46217;DHT22;47258;59.424;13.482;2022-07-29T13:16:26;24.80;74.40
46217;DHT22;47258;59.424;13.482;2022-07-29T13:19:11;24.90;73.70
46217;DHT22;47258;59.424;13.482;2022-07-29T13:21:39;25.00;72.40
46217;DHT22;47258;59.424;13.482;2022-07-29T13:24:07;25.00;72.80
46217;DHT22;47258;59.424;13.482;2022-07-29T13:26:36;25.10;73.40
46217;DHT22;47258;59.424;13.482;2022-07-29T13:29:06;25.20;70.20
46217;DHT22;47258;59.424;13.482;2022-07-29T13:31:35;25.20;73.30
46217;DHT22;47258;59.424;13.482;2022-07-29T13:34:02;25.20;72.60
46217;DHT22;47258;59.424;13.482;2022-07-29T13:36:29;25.20;74.50
46217;DHT22;47258;59.424;13.482;2022-07-29T13:38:56;25.20;73.30
46217;DHT22;47258;59.424;13.482;2022-07-29T13:41:23;25.20;74.10
46217;DHT22;47258;59.424;13.482;2022-07-29T13:43:50;25.30;74.30
46217;DHT22;47258;59.424;13.482;2022-07-29T13:46:17;25.30;73.90
46217;DHT22;47258;59.424;13.482;2022-07-29T13:48:45;25.20;73.60
46217;DHT22;47258;59.424;13.482;2022-07-29T13:51:12;25.10;76.10
46217;DHT22;47258;59.424;13.482;2022-07-29T13:53:39;25.00;73.50
46217;DHT22;47258;59.424;13.482;2022-07-29T13:56:06;25.00;74.50
46217;DHT22;47258;59.424;13.482;2022-07-29T13:58:33;25.10;71.50
46217;DHT22;47258;59.424;13.482;2022-07-29T14:01:00;25.10;73.40
46217;DHT22;47258;59.424;13.482;2022-07-29T14:03:27;25.10;74.60
46217;DHT22;47258;59.424;13.482;2022-07-29T14:05:55;25.20;73.90
46217;DHT22;47258;59.424;13.482;2022-07-29T14:08:25;25.30;73.70
46217;DHT22;47258;59.424;13.482;2022-07-29T14:10:52;25.30;72.80
46217;DHT22;47258;59.424;13.482;2022-07-29T14:13:19;25.40;74.30
46217;DHT22;47258;59.424;13.482;2022-07-29T14:15:46;25.40;73.60
46217;DHT22;47258;59.424;13.482;2022-07-29T14:18:13;25.40;71.90
46217;DHT22;47258;59.424;13.482;2022-07-29T14:20:40;25.30;71.60
46217;DHT22;47258;59.424;13.482;2022-07-29T14:23:08;25.30;72.00
46217;DHT22;47258;59.424;13.482;2022-07-29T14:25:35;25.30;70.40
46217;DHT22;47258;59.424;13.482;2022-07-29T14:28:02;25.20;71.60
46217;DHT22;47258;59.424;13.482;2022-07-29T14:30:29;25.20;72.60
46217;DHT22;47258;59.424;13.482;2022-07-29T14:32:56;25.20;69.10
46217;DHT22;47258;59.424;13.482;2022-07-29T14:35:23;25.10;70.70
46217;DHT22;47258;59.424;13.482;2022-07-29T14:37:50;25.10;73.30
46217;DHT22;47258;59.424;13.482;2022-07-29T14:40:19;25.10;71.80
46217;DHT22;47258;59.424;13.482;2022-07-29T14:42:46;25.10;69.30
46217;DHT22;47258;59.424;13.482;2022-07-29T14:45:12;25.10;72.10
46217;DHT22;47258;59.424;13.482;2022-07-29T14:47:39;25.10;72.40
46217;DHT22;47258;59.424;13.482;2022-07-29T14:50:07;25.20;71.40
46217;DHT22;47258;59.424;13.482;2022-07-29T14:52:34;25.20;70.90
46217;DHT22;47258;59.424;13.482;2022-07-29T14:55:02;25.20;71.40
46217;DHT22;47258;59.424;13.482;2022-07-29T14:57:30;25.20;71.80
46217;DHT22;47258;59.424;13.482;2022-07-29T14:59:57;25.20;71.90
46217;DHT22;47258;59.424;13.482;2022-07-29T15:02:24;25.20;71.90
46217;DHT22;47258;59.424;13.482;2022-07-29T15:04:51;25.20;72.80
46217;DHT22;47258;59.424;13.482;2022-07-29T15:07:18;25.20;73.80
46217;DHT22;47258;59.424;13.482;2022-07-29T15:09:45;25.10;70.60
46217;DHT22;47258;59.424;13.482;2022-07-29T15:12:13;25.20;71.20
46217;DHT22;47258;59.424;13.482;2022-07-29T15:14:41;25.10;70.30
46217;DHT22;47258;59.424;13.482;2022-07-29T15:17:08;25.10;69.50
46217;DHT22;47258;59.424;13.482;2022-07-29T15:19:35;25.10;69.80
46217;DHT22;47258;59.424;13.482;2022-07-29T15:22:02;25.10;69.30
46217;DHT22;47258;59.424;13.482;2022-07-29T15:24:30;25.10;69.30
46217;DHT22;47258;59.424;13.482;2022-07-29T15:26:57;25.10;69.50
46217;DHT22;47258;59.424;13.482;2022-07-29T15:29:24;25.10;69.00
46217;DHT22;47258;59.424;13.482;2022-07-29T15:31:53;25.10;69.60
46217;DHT22;47258;59.424;13.482;2022-07-29T15:34:20;25.10;69.20
46217;DHT22;47258;59.424;13.482;2022-07-29T15:36:49;25.10;68.70
46217;DHT22;47258;59.424;13.482;2022-07-29T15:39:16;25.10;69.20
46217;DHT22;47258;59.424;13.482;2022-07-29T15:41:43;25.10;68.50